| time (UTC) | temp C | wind direction | speed KPH | gust KPH | rain 1hr cm | rain 24hr cm | rain mn cm | humidity % | barometer mb |
| 20260507153003 | 13 | 19 | 1.6 | 11.3 | 0.00 | 0.00 | 0.00 | 70 | 1013.7 |
| 20260507152003 | 13 | 10 | 1.6 | 6.4 | 0.00 | 0.00 | 0.00 | 71 | 1013.4 |
| 20260507151003 | 13 | 20 | 4.8 | 12.9 | 0.00 | 0.00 | 0.00 | 72 | 1013.5 |
| 20260507150003 | 13 | 357 | 3.2 | 9.7 | 0.00 | 0.00 | 0.00 | 71 | 1013.5 |
| 20260507145003 | 13 | 16 | 1.6 | 4.8 | 0.00 | 0.00 | 0.00 | 70 | 1013.6 |
| 20260507144003 | 13 | 344 | 1.6 | 4.8 | 0.00 | 0.00 | 0.00 | 70 | 1013.4 |
| 20260507143003 | 13 | 318 | 1.6 | 3.2 | 0.00 | 0.00 | 0.00 | 68 | 1013.7 |
| 20260507142003 | 13 | 319 | 1.6 | 4.8 | 0.00 | 0.00 | 0.00 | 66 | 1013.6 |
| 20260507141003 | 14 | 324 | 1.6 | 3.2 | 0.00 | 0.00 | 0.00 | 63 | 1013.8 |
| 20260507140003 | 14 | 327 | 0.0 | 3.2 | 0.00 | 0.00 | 0.00 | 65 | 1013.5 |
| 20260507135003 | 13 | 329 | 0.0 | 3.2 | 0.00 | 0.00 | 0.00 | 69 | 1013.8 |
| 20260507134003 | 13 | 329 | 1.6 | 3.2 | 0.00 | 0.00 | 0.00 | 71 | 1013.9 |
| 20260507133003 | 13 | 327 | 1.6 | 4.8 | 0.00 | 0.00 | 0.00 | 72 | 1014.0 |
| 20260507132003 | 13 | 322 | 3.2 | 6.4 | 0.00 | 0.00 | 0.00 | 71 | 1014.1 |
| 20260507131003 | 13 | 6 | 1.6 | 4.8 | 0.00 | 0.00 | 0.00 | 67 | 1013.8 |
| 20260507130003 | 14 | 26 | 1.6 | 4.8 | 0.00 | 0.00 | 0.00 | 62 | 1013.8 |
| 20260507125003 | 14 | 26 | 1.6 | 4.8 | 0.00 | 0.00 | 0.00 | 60 | 1014.0 |
| 20260507124003 | 15 | 26 | 0.0 | 3.2 | 0.00 | 0.00 | 0.00 | 56 | 1013.9 |
| 20260507123003 | 14 | 26 | 1.6 | 3.2 | 0.00 | 0.00 | 0.00 | 60 | 1013.9 |
| 20260507122003 | 13 | 26 | 1.6 | 3.2 | 0.00 | 0.00 | 0.00 | 62 | 1014.1 |
| 20260507121003 | 13 | 26 | 1.6 | 4.8 | 0.00 | 0.00 | 0.00 | 63 | 1013.9 |
| 20260507120003 | 14 | 26 | 1.6 | 3.2 | 0.00 | 0.00 | 0.00 | 62 | 1014.2 |
| 20260507115003 | 14 | 20 | 3.2 | 6.4 | 0.00 | 0.00 | 0.00 | 62 | 1014.2 |
| 20260507114003 | 13 | 25 | 4.8 | 9.7 | 0.00 | 0.00 | 0.00 | 64 | 1014.2 |
| 20260507113003 | 13 | 26 | 4.8 | 6.4 | 0.00 | 0.00 | 0.00 | 63 | 1014.1 |
| 20260507112003 | 14 | 23 | 4.8 | 9.7 | 0.00 | 0.00 | 0.00 | 63 | 1014.4 |
| 20260507111003 | 13 | 24 | 4.8 | 9.7 | 0.00 | 0.00 | 0.00 | 67 | 1014.2 |
| 20260507110003 | 14 | 24 | 4.8 | 9.7 | 0.00 | 0.00 | 0.00 | 63 | 1014.2 |
| 20260507105003 | 13 | 24 | 4.8 | 9.7 | 0.00 | 0.00 | 0.00 | 66 | 1014.5 |
| 20260507104003 | 13 | 26 | 4.8 | 11.3 | 0.00 | 0.00 | 0.00 | 69 | 1014.6 |
| 20260507103003 | 13 | 21 | 3.2 | 6.4 | 0.00 | 0.00 | 0.00 | 69 | 1014.8 |
| 20260507102003 | 12 | 23 | 3.2 | 9.7 | 0.00 | 0.00 | 0.00 | 71 | 1015.0 |
| 20260507101218 | 12 | 25 | 4.8 | 9.7 | 0.00 | 0.00 | 0.00 | 72 | 1014.8 |
| 20260507100003 | 12 | 26 | 4.8 | 9.7 | 0.00 | 0.00 | 0.00 | 73 | 1014.8 |
| 20260507095003 | 11 | 25 | 6.4 | 12.9 | 0.00 | 0.00 | 0.00 | 75 | 1014.7 |
| 20260507094003 | 11 | 24 | 6.4 | 12.9 | 0.00 | 0.00 | 0.00 | 77 | 1014.8 |
| 20260507093003 | 10 | 25 | 6.4 | 11.3 | 0.00 | 0.00 | 0.00 | 79 | 1014.7 |
| 20260507092218 | 10 | 25 | 6.4 | 12.9 | 0.00 | 0.00 | 0.00 | 79 | 1014.8 |
| 20260507091003 | 10 | 26 | 6.4 | 11.3 | 0.00 | 0.00 | 0.00 | 79 | 1014.8 |
| 20260507090220 | 10 | 25 | 4.8 | 11.3 | 0.00 | 0.00 | 0.00 | 79 | 1014.9 |
| 20260507085003 | 10 | 25 | 4.8 | 11.3 | 0.00 | 0.00 | 0.00 | 81 | 1014.8 |
| 20260507084003 | 9 | 25 | 4.8 | 11.3 | 0.00 | 0.00 | 0.00 | 81 | 1015.1 |
| 20260507083003 | 9 | 24 | 4.8 | 9.7 | 0.00 | 0.00 | 0.00 | 82 | 1014.9 |
| 20260507082003 | 8 | 24 | 4.8 | 9.7 | 0.00 | 0.00 | 0.00 | 82 | 1015.0 |
| 20260507081003 | 8 | 25 | 3.2 | 9.7 | 0.00 | 0.00 | 0.00 | 83 | 1014.9 |
| 20260507080003 | 8 | 25 | 4.8 | 9.7 | 0.00 | 0.00 | 0.00 | 83 | 1015.0 |
| 20260507075003 | 8 | 21 | 3.2 | 9.7 | 0.00 | 0.00 | 0.00 | 83 | 1014.9 |
| 20260507074003 | 8 | 24 | 3.2 | 6.4 | 0.00 | 0.00 | 0.00 | 83 | 1015.2 |
| 20260507073003 | 8 | 27 | 4.8 | 12.9 | 0.00 | 0.00 | 0.00 | 83 | 1014.9 |
| 20260507072003 | 8 | 24 | 4.8 | 12.9 | 0.00 | 0.00 | 0.00 | 82 | 1014.5 |
| 20260507071003 | 8 | 26 | 4.8 | 12.9 | 0.00 | 0.00 | 0.00 | 83 | 1014.7 |
| 20260507070221 | 8 | 25 | 4.8 | 9.7 | 0.00 | 0.00 | 0.00 | 84 | 1014.6 |
| 20260507065217 | 8 | 24 | 3.2 | 6.4 | 0.00 | 0.00 | 0.00 | 85 | 1014.8 |
| 20260507064218 | 8 | 25 | 4.8 | 11.3 | 0.00 | 0.00 | 0.00 | 85 | 1014.5 |
| 20260507063219 | 7 | 25 | 4.8 | 11.3 | 0.00 | 0.00 | 0.00 | 85 | 1014.7 |
| 20260507062003 | 7 | 26 | 4.8 | 11.3 | 0.00 | 0.00 | 0.00 | 86 | 1014.5 |
| 20260507061003 | 7 | 26 | 4.8 | 11.3 | 0.00 | 0.00 | 0.00 | 86 | 1014.6 |
| 20260507060216 | 7 | 26 | 4.8 | 9.7 | 0.00 | 0.00 | 0.00 | 86 | 1014.5 |
| 20260507055217 | 7 | 25 | 4.8 | 9.7 | 0.00 | 0.00 | 0.00 | 86 | 1014.5 |
| 20260507054218 | 7 | 26 | 4.8 | 11.3 | 0.00 | 0.00 | 0.00 | 86 | 1014.3 |
| 20260507053003 | 7 | 26 | 4.8 | 9.7 | 0.00 | 0.00 | 0.00 | 86 | 1014.1 |
| 20260507052003 | 7 | 25 | 4.8 | 9.7 | 0.00 | 0.00 | 0.00 | 86 | 1014.4 |
| 20260507051003 | 7 | 25 | 4.8 | 9.7 | 0.00 | 0.00 | 0.00 | 86 | 1014.5 |
| 20260507050003 | 7 | 25 | 4.8 | 9.7 | 0.00 | 0.00 | 0.00 | 85 | 1014.1 |
| 20260507045003 | 7 | 24 | 3.2 | 6.4 | 0.00 | 0.00 | 0.00 | 84 | 1014.3 |
| 20260507044003 | 7 | 24 | 4.8 | 9.7 | 0.00 | 0.00 | 0.00 | 85 | 1014.4 |
| 20260507043003 | 7 | 24 | 3.2 | 9.7 | 0.00 | 0.00 | 0.00 | 84 | 1014.0 |
| 20260507042221 | 7 | 26 | 4.8 | 11.3 | 0.00 | 0.00 | 0.00 | 84 | 1014.2 |
| 20260507041003 | 7 | 26 | 4.8 | 11.3 | 0.00 | 0.00 | 0.00 | 84 | 1014.1 |
| 20260507040003 | 7 | 25 | 4.8 | 9.7 | 0.00 | 0.00 | 0.00 | 84 | 1014.1 |
| 20260507035003 | 7 | 26 | 4.8 | 11.3 | 0.00 | 0.00 | 0.00 | 84 | 1014.2 |
| 20260507034003 | 7 | 28 | 6.4 | 12.9 | 0.00 | 0.00 | 0.00 | 83 | 1014.1 |
| 20260507033221 | 7 | 28 | 6.4 | 11.3 | 0.00 | 0.00 | 0.00 | 83 | 1014.0 |
| 20260507032003 | 8 | 27 | 6.4 | 12.9 | 0.00 | 0.00 | 0.00 | 82 | 1014.3 |
| 20260507031217 | 8 | 26 | 4.8 | 11.3 | 0.00 | 0.00 | 0.00 | 82 | 1014.0 |
| 20260507030218 | 8 | 25 | 4.8 | 11.3 | 0.00 | 0.00 | 0.00 | 82 | 1014.3 |
| 20260507025003 | 8 | 20 | 4.8 | 9.7 | 0.00 | 0.00 | 0.00 | 82 | 1014.2 |
| 20260507024003 | 8 | 24 | 4.8 | 9.7 | 0.00 | 0.00 | 0.00 | 82 | 1014.1 |
| 20260507023003 | 8 | 26 | 4.8 | 11.3 | 0.00 | 0.00 | 0.00 | 82 | 1014.0 |
| 20260507022003 | 8 | 24 | 4.8 | 11.3 | 0.00 | 0.00 | 0.00 | 81 | 1014.1 |
| 20260507021003 | 8 | 25 | 4.8 | 9.7 | 0.00 | 0.00 | 0.00 | 81 | 1014.1 |
| 20260507020003 | 8 | 24 | 3.2 | 6.4 | 0.00 | 0.00 | 0.00 | 81 | 1014.1 |
| 20260507015003 | 8 | 24 | 3.2 | 6.4 | 0.00 | 0.00 | 0.00 | 80 | 1014.2 |
| 20260507014003 | 8 | 26 | 4.8 | 11.3 | 0.00 | 0.00 | 0.00 | 80 | 1014.0 |
| 20260507013003 | 8 | 26 | 4.8 | 11.3 | 0.00 | 0.00 | 0.00 | 79 | 1014.1 |
| 20260507012003 | 8 | 26 | 4.8 | 12.9 | 0.00 | 0.00 | 0.00 | 78 | 1014.0 |
| 20260507010220 | 8 | 28 | 6.4 | 12.9 | 0.00 | 0.00 | 0.00 | 77 | 1014.0 |
| 20260507005003 | 8 | 28 | 6.4 | 12.9 | 0.00 | 0.00 | 0.00 | 77 | 1014.5 |
| 20260507004003 | 8 | 28 | 6.4 | 12.9 | 0.00 | 0.00 | 0.00 | 76 | 1013.9 |
| 20260507003003 | 8 | 29 | 6.4 | 14.5 | 0.00 | 0.00 | 0.00 | 77 | 1014.1 |
| 20260507002003 | 8 | 29 | 6.4 | 16.1 | 0.00 | 0.00 | 0.00 | 78 | 1014.2 |
| 20260507001003 | 8 | 29 | 6.4 | 14.5 | 0.00 | 0.00 | 0.00 | 77 | 1014.3 |
| 20260507000003 | 8 | 29 | 6.4 | 12.9 | 0.00 | 0.00 | 0.00 | 77 | 1014.3 |
| 20260506235003 | 9 | 29 | 6.4 | 14.5 | 0.00 | 0.00 | 0.00 | 76 | 1014.1 |
| 20260506234003 | 9 | 28 | 6.4 | 14.5 | 0.00 | 0.00 | 0.00 | 75 | 1014.2 |
| 20260506233003 | 9 | 29 | 6.4 | 12.9 | 0.00 | 0.00 | 0.00 | 74 | 1014.2 |
| 20260506232003 | 10 | 30 | 8.0 | 14.5 | 0.00 | 0.00 | 0.00 | 73 | 1014.3 |
| 20260506231003 | 10 | 30 | 8.0 | 14.5 | 0.00 | 0.00 | 0.00 | 72 | 1014.2 |
| 20260506230003 | 10 | 29 | 6.4 | 16.1 | 0.00 | 0.00 | 0.00 | 70 | 1014.3 |
| 20260506225003 | 10 | 28 | 8.0 | 14.5 | 0.00 | 0.00 | 0.00 | 69 | 1014.3 |
| 20260506224003 | 10 | 29 | 8.0 | 16.1 | 0.00 | 0.00 | 0.00 | 67 | 1014.1 |
| 20260506223219 | 10 | 28 | 6.4 | 16.1 | 0.00 | 0.00 | 0.00 | 67 | 1014.1 |
| 20260506222220 | 10 | 28 | 6.4 | 14.5 | 0.00 | 0.00 | 0.00 | 66 | 1014.0 |
| 20260506221003 | 10 | 28 | 6.4 | 14.5 | 0.00 | 0.00 | 0.00 | 64 | 1014.0 |
| 20260506220003 | 10 | 26 | 6.4 | 12.9 | 0.00 | 0.00 | 0.00 | 64 | 1014.0 |
| 20260506215003 | 11 | 28 | 6.4 | 16.1 | 0.00 | 0.00 | 0.00 | 63 | 1013.7 |
| 20260506214003 | 11 | 29 | 8.0 | 14.5 | 0.00 | 0.00 | 0.00 | 61 | 1013.7 |
| 20260506213003 | 11 | 28 | 8.0 | 14.5 | 0.00 | 0.00 | 0.00 | 60 | 1013.8 |
| 20260506212003 | 11 | 21 | 4.8 | 16.1 | 0.00 | 0.00 | 0.00 | 62 | 1013.7 |
| 20260506211003 | 10 | 20 | 1.6 | 9.7 | 0.00 | 0.00 | 0.00 | 62 | 1013.7 |
| 20260506210003 | 11 | 15 | 1.6 | 3.2 | 0.00 | 0.00 | 0.00 | 63 | 1013.5 |
| 20260506205003 | 11 | 15 | 1.6 | 4.8 | 0.00 | 0.00 | 0.00 | 62 | 1013.4 |
| 20260506204003 | 10 | 22 | 1.6 | 4.8 | 0.00 | 0.00 | 0.00 | 60 | 1013.3 |
| 20260506203003 | 10 | 17 | 1.6 | 4.8 | 0.00 | 0.00 | 0.00 | 58 | 1013.3 |
| 20260506202003 | 11 | 2 | 1.6 | 3.2 | 0.00 | 0.00 | 0.00 | 56 | 1013.2 |
| 20260506201003 | 11 | 8 | 0.0 | 3.2 | 0.00 | 0.00 | 0.00 | 57 | 1012.9 |
| 20260506200003 | 11 | 8 | 1.6 | 3.2 | 0.00 | 0.00 | 0.00 | 58 | 1013.1 |
| 20260506195003 | 11 | 1 | 1.6 | 3.2 | 0.00 | 0.00 | 0.00 | 58 | 1012.7 |
| 20260506194003 | 11 | 6 | 1.6 | 6.4 | 0.00 | 0.00 | 0.00 | 58 | 1012.8 |
| 20260506193003 | 11 | 13 | 3.2 | 6.4 | 0.00 | 0.00 | 0.00 | 57 | 1013.0 |
| 20260506192003 | 11 | 15 | 3.2 | 9.7 | 0.00 | 0.00 | 0.00 | 56 | 1012.7 |
| 20260506191003 | 11 | 19 | 3.2 | 6.4 | 0.00 | 0.00 | 0.00 | 56 | 1012.8 |
| 20260506190003 | 12 | 15 | 3.2 | 9.7 | 0.00 | 0.00 | 0.00 | 55 | 1012.8 |
| 20260506185003 | 12 | 17 | 3.2 | 4.8 | 0.00 | 0.00 | 0.00 | 53 | 1012.7 |
| 20260506184003 | 12 | 21 | 3.2 | 9.7 | 0.00 | 0.00 | 0.00 | 52 | 1012.7 |
| 20260506183003 | 13 | 23 | 4.8 | 11.3 | 0.00 | 0.00 | 0.00 | 51 | 1012.7 |
| 20260506182003 | 13 | 22 | 4.8 | 11.3 | 0.00 | 0.00 | 0.00 | 49 | 1012.6 |
| 20260506181003 | 13 | 26 | 6.4 | 12.9 | 0.00 | 0.00 | 0.00 | 48 | 1012.6 |
| 20260506180003 | 13 | 25 | 6.4 | 16.1 | 0.00 | 0.00 | 0.00 | 51 | 1012.6 |
| 20260506175003 | 13 | 26 | 6.4 | 12.9 | 0.00 | 0.00 | 0.00 | 51 | 1012.5 |
| 20260506174003 | 13 | 28 | 6.4 | 14.5 | 0.00 | 0.00 | 0.00 | 50 | 1012.4 |
| 20260506173003 | 14 | 26 | 4.8 | 11.3 | 0.00 | 0.00 | 0.00 | 47 | 1012.6 |
| 20260506172003 | 14 | 24 | 6.4 | 11.3 | 0.00 | 0.00 | 0.00 | 48 | 1012.6 |
| 20260506171003 | 13 | 25 | 4.8 | 12.9 | 0.00 | 0.00 | 0.00 | 51 | 1012.2 |
| 20260506170003 | 13 | 25 | 6.4 | 14.5 | 0.00 | 0.00 | 0.00 | 48 | 1012.4 |
| 20260506165221 | 13 | 23 | 4.8 | 12.9 | 0.00 | 0.00 | 0.00 | 49 | 1012.3 |
| 20260506164216 | 13 | 24 | 4.8 | 12.9 | 0.00 | 0.00 | 0.00 | 49 | 1012.5 |
| 20260506163217 | 15 | 27 | 6.4 | 11.3 | 0.00 | 0.00 | 0.00 | 47 | 1012.2 |
| 20260506162003 | 15 | 29 | 6.4 | 14.5 | 0.00 | 0.00 | 0.00 | 48 | 1012.3 |
| 20260506161003 | 14 | 28 | 6.4 | 12.9 | 0.00 | 0.00 | 0.00 | 47 | 1012.4 |
| 20260506160003 | 15 | 30 | 8.0 | 14.5 | 0.00 | 0.00 | 0.00 | 47 | 1012.4 |
| 20260506155221 | 15 | 28 | 8.0 | 14.5 | 0.00 | 0.00 | 0.00 | 46 | 1012.2 |
| 20260506154217 | 14 | 29 | 8.0 | 14.5 | 0.00 | 0.00 | 0.00 | 48 | 1012.3 |